Impacts TAF Board INFO
IDs:

KPHL - Philadelphia Intl, PA, US

Issued at 1136 UTC 05 Dec 2016
Updated at 1434 UTC 05 Dec 2016
Potential Impact None Slight Moderate High
Time1354Z 05/15Z 05/16Z 05/17Z 05/18Z 05/19Z 05/20Z 05/21Z 05/22Z 05/23Z 06/00Z 06/01Z 06/02Z 06/03Z
Type OBS PRVL PRVL PRVL PRVL PRVL PRVL PRVL PRVL PRVL PRVL PRVL PRVL PRVL
VIS 8 5 >6 >6 >6 >6 >6 >6 >6 >6 >6 >6 >6 >6
CIG 7 8 25 25 -- -- -- -- -- -- -- -- -- --
Cover OVC OVC BKN BKN SCT SCT SCT SCT SCT SCT FEW FEW FEW FEW
FltCat IFR IFR MVFR MVFR VFR VFR VFR VFR VFR VFR VFR VFR VFR VFR
WX -- BR -- -- -- -- -- -- -- -- -- -- -- --
WDir 230 200 280 280 310 310 310 310 310 310 320 320 320 320
WSpd 9 9 9 9 12 12 12 12 12 12 7 7 7 7
WGst -- -- -- -- -- -- -- -- -- -- -- -- -- --

Raw TAF
KPHL 051136Z 0512/0618 20009KT 5SM BR OVC008
  FM051600 28009KT P6SM SCT015 BKN025
  FM051800 31012KT P6SM SCT040
  FM060000 32007KT P6SM FEW040
  FM060600 35006KT P6SM SCT200
  FM061200 06007KT P6SM BKN150


Raw METAR
KPHL 051354Z 23009KT 8SM OVC007 06/04 A3001 RMK AO2 SLP163 T00560044
KPHL 051254Z 20009KT 7SM BKN008 OVC014 06/04 A3001 RMK AO2 SLP162 T00560039
KPHL 051214Z 23010KT 7SM OVC007 05/04 A3002 RMK AO2 T00500039
KPHL 051154Z 22010KT 6SM BR BKN008 OVC015 05/04 A3002 RMK AO2 SLP167 60011 70013 T00500039 10056 20044 55006
KPHL 051133Z 20011KT 6SM BR BKN008 OVC015 05/04 A3002 RMK AO2 T00500039

METAR Board
Radar Display
Forecast Discussion